sensor_id;sensor_type;location;lat;lon;timestamp;pressure;altitude;pressure_sealevel;temperature;humidity
46303;BME280;32029;51.358;5.628;2023-04-23T00:02:06;100539.75;;;12.31;84.39
46303;BME280;32029;51.358;5.628;2023-04-23T00:04:35;100523.84;;;12.19;84.16
46303;BME280;32029;51.358;5.628;2023-04-23T00:07:04;100511.50;;;12.09;84.16
46303;BME280;32029;51.358;5.628;2023-04-23T00:09:32;100515.97;;;12.10;84.22
46303;BME280;32029;51.358;5.628;2023-04-23T00:12:00;100518.28;;;12.06;84.38
46303;BME280;32029;51.358;5.628;2023-04-23T00:14:27;100533.16;;;12.18;84.22
46303;BME280;32029;51.358;5.628;2023-04-23T00:16:54;100470.72;;;11.77;84.18
46303;BME280;32029;51.358;5.628;2023-04-23T00:19:21;100508.53;;;12.04;84.49
46303;BME280;32029;51.358;5.628;2023-04-23T00:21:48;100479.63;;;11.80;84.32
46303;BME280;32029;51.358;5.628;2023-04-23T00:24:14;100520.59;;;12.02;84.22
46303;BME280;32029;51.358;5.628;2023-04-23T00:26:41;100508.72;;;11.95;84.33
46303;BME280;32029;51.358;5.628;2023-04-23T00:29:09;100519.75;;;12.02;84.27
46303;BME280;32029;51.358;5.628;2023-04-23T00:31:37;100517.34;;;11.92;84.23
46303;BME280;32029;51.358;5.628;2023-04-23T00:34:04;100499.50;;;11.82;84.35
46303;BME280;32029;51.358;5.628;2023-04-23T00:36:30;100509.06;;;11.86;84.54
46303;BME280;32029;51.358;5.628;2023-04-23T00:38:57;100475.75;;;11.67;84.25
46303;BME280;32029;51.358;5.628;2023-04-23T00:41:25;100518.63;;;11.90;84.14
46303;BME280;32029;51.358;5.628;2023-04-23T00:43:53;100517.31;;;11.86;84.33
46303;BME280;32029;51.358;5.628;2023-04-23T00:46:19;100497.59;;;11.75;84.38
46303;BME280;32029;51.358;5.628;2023-04-23T00:48:47;100471.72;;;11.63;84.41
46303;BME280;32029;51.358;5.628;2023-04-23T00:51:15;100465.72;;;11.53;84.68
46303;BME280;32029;51.358;5.628;2023-04-23T00:53:42;100511.31;;;11.75;84.85
46303;BME280;32029;51.358;5.628;2023-04-23T00:56:09;100461.69;;;11.49;84.99
46303;BME280;32029;51.358;5.628;2023-04-23T00:58:36;100482.72;;;11.63;85.11
46303;BME280;32029;51.358;5.628;2023-04-23T01:01:03;100455.34;;;11.48;85.39
46303;BME280;32029;51.358;5.628;2023-04-23T01:03:30;100460.44;;;11.51;85.44
46303;BME280;32029;51.358;5.628;2023-04-23T01:05:58;100458.31;;;11.47;85.62
46303;BME280;32029;51.358;5.628;2023-04-23T01:08:25;100463.84;;;11.53;85.60
46303;BME280;32029;51.358;5.628;2023-04-23T01:10:52;100484.63;;;11.69;86.36
46303;BME280;32029;51.358;5.628;2023-04-23T01:13:19;100488.03;;;11.71;86.15
46303;BME280;32029;51.358;5.628;2023-04-23T01:15:47;100486.97;;;11.72;86.69
46303;BME280;32029;51.358;5.628;2023-04-23T01:18:14;100455.63;;;11.60;86.96
46303;BME280;32029;51.358;5.628;2023-04-23T01:20:41;100447.78;;;11.57;87.09
46303;BME280;32029;51.358;5.628;2023-04-23T01:23:09;100424.91;;;11.50;87.32
46303;BME280;32029;51.358;5.628;2023-04-23T01:25:37;100441.50;;;11.63;87.13
46303;BME280;32029;51.358;5.628;2023-04-23T01:28:05;100465.22;;;11.77;87.23
46303;BME280;32029;51.358;5.628;2023-04-23T01:30:35;100455.06;;;11.71;87.33
46303;BME280;32029;51.358;5.628;2023-04-23T01:33:02;100435.38;;;11.68;87.44
46303;BME280;32029;51.358;5.628;2023-04-23T01:35:32;100478.03;;;11.92;87.88
46303;BME280;32029;51.358;5.628;2023-04-23T01:38:01;100477.63;;;11.95;87.81
46303;BME280;32029;51.358;5.628;2023-04-23T01:40:28;100471.72;;;11.98;88.07
46303;BME280;32029;51.358;5.628;2023-04-23T01:42:56;100471.28;;;12.01;88.33
46303;BME280;32029;51.358;5.628;2023-04-23T01:45:23;100460.28;;;12.01;88.35
46303;BME280;32029;51.358;5.628;2023-04-23T01:47:49;100372.72;;;11.50;88.24
46303;BME280;32029;51.358;5.628;2023-04-23T01:50:16;100462.00;;;12.02;88.72
46303;BME280;32029;51.358;5.628;2023-04-23T01:52:43;100449.72;;;11.98;88.38
46303;BME280;32029;51.358;5.628;2023-04-23T01:55:11;100443.59;;;12.02;88.97
46303;BME280;32029;51.358;5.628;2023-04-23T01:57:37;100459.47;;;12.07;88.63
46303;BME280;32029;51.358;5.628;2023-04-23T02:00:07;100469.88;;;12.18;88.69
46303;BME280;32029;51.358;5.628;2023-04-23T02:02:34;100428.53;;;11.92;88.59
46303;BME280;32029;51.358;5.628;2023-04-23T02:05:01;100426.44;;;11.94;88.40
46303;BME280;32029;51.358;5.628;2023-04-23T02:07:32;100466.47;;;12.16;88.60
46303;BME280;32029;51.358;5.628;2023-04-23T02:09:59;100469.22;;;12.16;88.31
46303;BME280;32029;51.358;5.628;2023-04-23T02:12:27;100467.31;;;12.17;88.48
46303;BME280;32029;51.358;5.628;2023-04-23T02:14:53;100459.28;;;12.15;88.31
46303;BME280;32029;51.358;5.628;2023-04-23T02:17:20;100445.06;;;12.05;88.38
46303;BME280;32029;51.358;5.628;2023-04-23T02:19:49;100440.00;;;12.02;88.03
46303;BME280;32029;51.358;5.628;2023-04-23T02:22:16;100429.38;;;11.92;88.17
46303;BME280;32029;51.358;5.628;2023-04-23T02:24:43;100445.28;;;12.04;88.27
46303;BME280;32029;51.358;5.628;2023-04-23T02:27:12;100423.03;;;11.92;88.63
46303;BME280;32029;51.358;5.628;2023-04-23T02:29:39;100430.88;;;11.95;88.47
46303;BME280;32029;51.358;5.628;2023-04-23T02:32:06;100416.91;;;11.90;88.58
46303;BME280;32029;51.358;5.628;2023-04-23T02:34:33;100417.13;;;11.95;88.96
46303;BME280;32029;51.358;5.628;2023-04-23T02:37:00;100405.91;;;11.90;89.33
46303;BME280;32029;51.358;5.628;2023-04-23T02:39:26;100423.50;;;12.02;89.14
46303;BME280;32029;51.358;5.628;2023-04-23T02:41:53;100421.78;;;12.01;89.41
46303;BME280;32029;51.358;5.628;2023-04-23T02:44:20;100423.50;;;12.09;89.12
46303;BME280;32029;51.358;5.628;2023-04-23T02:46:46;100423.72;;;12.07;89.08
46303;BME280;32029;51.358;5.628;2023-04-23T02:49:13;100445.53;;;12.15;88.79
46303;BME280;32029;51.358;5.628;2023-04-23T02:51:40;100418.41;;;11.99;88.55
46303;BME280;32029;51.358;5.628;2023-04-23T02:54:07;100437.88;;;12.04;88.07
46303;BME280;32029;51.358;5.628;2023-04-23T02:56:33;100413.09;;;11.91;88.49
46303;BME280;32029;51.358;5.628;2023-04-23T02:59:00;100420.06;;;11.93;88.58
46303;BME280;32029;51.358;5.628;2023-04-23T03:01:27;100435.53;;;11.94;88.36
46303;BME280;32029;51.358;5.628;2023-04-23T03:03:53;100408.56;;;11.76;88.21
46303;BME280;32029;51.358;5.628;2023-04-23T03:06:20;100425.97;;;11.84;88.55
46303;BME280;32029;51.358;5.628;2023-04-23T03:08:47;100415.34;;;11.81;88.58
46303;BME280;32029;51.358;5.628;2023-04-23T03:11:14;100407.72;;;11.76;88.99
46303;BME280;32029;51.358;5.628;2023-04-23T03:13:40;100413.25;;;11.83;89.02
46303;BME280;32029;51.358;5.628;2023-04-23T03:16:07;100395.03;;;11.75;89.04
46303;BME280;32029;51.358;5.628;2023-04-23T03:18:34;100339.91;;;11.42;89.48
46303;BME280;32029;51.358;5.628;2023-04-23T03:21:01;100435.97;;;11.98;89.29
46303;BME280;32029;51.358;5.628;2023-04-23T03:23:28;100431.50;;;11.97;89.31
46303;BME280;32029;51.358;5.628;2023-04-23T03:25:55;100400.53;;;11.82;89.10
46303;BME280;32029;51.358;5.628;2023-04-23T03:28:21;100393.75;;;11.77;89.33
46303;BME280;32029;51.358;5.628;2023-04-23T03:30:48;100386.63;;;11.83;89.42
46303;BME280;32029;51.358;5.628;2023-04-23T03:33:15;100373.03;;;11.75;90.03
46303;BME280;32029;51.358;5.628;2023-04-23T03:35:41;100414.81;;;11.98;90.12
46303;BME280;32029;51.358;5.628;2023-04-23T03:38:08;100405.50;;;11.99;90.38
46303;BME280;32029;51.358;5.628;2023-04-23T03:40:35;100401.28;;;12.04;90.43
46303;BME280;32029;51.358;5.628;2023-04-23T03:43:01;100390.50;;;12.02;90.64
46303;BME280;32029;51.358;5.628;2023-04-23T03:45:29;100403.22;;;12.10;90.48
46303;BME280;32029;51.358;5.628;2023-04-23T03:47:56;100411.72;;;12.21;90.91
46303;BME280;32029;51.358;5.628;2023-04-23T03:50:23;100422.28;;;12.24;90.69
46303;BME280;32029;51.358;5.628;2023-04-23T03:52:49;100429.28;;;12.27;90.55
46303;BME280;32029;51.358;5.628;2023-04-23T03:55:16;100396.44;;;12.12;90.67
46303;BME280;32029;51.358;5.628;2023-04-23T03:57:43;100414.03;;;12.24;90.88
46303;BME280;32029;51.358;5.628;2023-04-23T04:00:10;100414.47;;;12.28;91.03
46303;BME280;32029;51.358;5.628;2023-04-23T04:02:40;100433.94;;;12.40;90.58
46303;BME280;32029;51.358;5.628;2023-04-23T04:05:07;100404.53;;;12.34;90.97
46303;BME280;32029;51.358;5.628;2023-04-23T04:07:34;100429.72;;;12.44;90.87
46303;BME280;32029;51.358;5.628;2023-04-23T04:10:04;100424.03;;;12.45;90.70
46303;BME280;32029;51.358;5.628;2023-04-23T04:12:31;100413.41;;;12.36;90.72
46303;BME280;32029;51.358;5.628;2023-04-23T04:14:57;100389.91;;;12.26;90.40
46303;BME280;32029;51.358;5.628;2023-04-23T04:17:24;100397.34;;;12.33;90.59
46303;BME280;32029;51.358;5.628;2023-04-23T04:19:51;100406.22;;;12.35;90.47
46303;BME280;32029;51.358;5.628;2023-04-23T04:22:17;100407.50;;;12.39;90.48
46303;BME280;32029;51.358;5.628;2023-04-23T04:24:44;100429.53;;;12.52;90.50
46303;BME280;32029;51.358;5.628;2023-04-23T04:27:13;100428.50;;;12.53;90.46
46303;BME280;32029;51.358;5.628;2023-04-23T04:29:40;100438.44;;;12.54;90.99
46303;BME280;32029;51.358;5.628;2023-04-23T04:32:07;100439.09;;;12.56;90.58
46303;BME280;32029;51.358;5.628;2023-04-23T04:34:34;100428.25;;;12.48;90.66
46303;BME280;32029;51.358;5.628;2023-04-23T04:37:04;100432.50;;;12.57;90.87
46303;BME280;32029;51.358;5.628;2023-04-23T04:39:31;100406.69;;;12.45;90.61
46303;BME280;32029;51.358;5.628;2023-04-23T04:41:57;100403.69;;;12.46;90.66
46303;BME280;32029;51.358;5.628;2023-04-23T04:44:25;100425.53;;;12.61;90.57
46303;BME280;32029;51.358;5.628;2023-04-23T04:46:52;100422.78;;;12.61;90.49
46303;BME280;32029;51.358;5.628;2023-04-23T04:49:19;100426.59;;;12.60;90.58
46303;BME280;32029;51.358;5.628;2023-04-23T04:51:47;100382.50;;;12.27;90.42
46303;BME280;32029;51.358;5.628;2023-04-23T04:54:14;100426.59;;;12.60;90.56
46303;BME280;32029;51.358;5.628;2023-04-23T04:56:40;100422.97;;;12.60;90.23
46303;BME280;32029;51.358;5.628;2023-04-23T04:59:07;100429.53;;;12.59;90.38
46303;BME280;32029;51.358;5.628;2023-04-23T05:01:34;100403.94;;;12.45;90.08
46303;BME280;32029;51.358;5.628;2023-04-23T05:04:02;100413.44;;;12.49;90.05
46303;BME280;32029;51.358;5.628;2023-04-23T05:06:29;100423.41;;;12.50;89.97
46303;BME280;32029;51.358;5.628;2023-04-23T05:08:57;100412.16;;;12.38;90.13
46303;BME280;32029;51.358;5.628;2023-04-23T05:11:24;100415.53;;;12.40;90.09
46303;BME280;32029;51.358;5.628;2023-04-23T05:13:51;100435.69;;;12.54;90.58
46303;BME280;32029;51.358;5.628;2023-04-23T05:16:18;100403.69;;;12.40;90.70
46303;BME280;32029;51.358;5.628;2023-04-23T05:18:44;100413.88;;;12.46;91.71
46303;BME280;32029;51.358;5.628;2023-04-23T05:21:11;100430.19;;;12.67;91.97
46303;BME280;32029;51.358;5.628;2023-04-23T05:23:38;100434.84;;;12.73;92.24
46303;BME280;32029;51.358;5.628;2023-04-23T05:26:05;100436.75;;;12.73;92.19
46303;BME280;32029;51.358;5.628;2023-04-23T05:28:32;100432.31;;;12.85;92.07
46303;BME280;32029;51.358;5.628;2023-04-23T05:30:58;100412.41;;;12.77;91.99
46303;BME280;32029;51.358;5.628;2023-04-23T05:33:25;100416.03;;;12.84;91.80
46303;BME280;32029;51.358;5.628;2023-04-23T05:35:52;100374.28;;;12.67;92.07
46303;BME280;32029;51.358;5.628;2023-04-23T05:38:19;100433.38;;;13.04;92.00
46303;BME280;32029;51.358;5.628;2023-04-23T05:40:45;100409.22;;;12.93;91.76
46303;BME280;32029;51.358;5.628;2023-04-23T05:43:12;100436.53;;;13.14;91.76
46303;BME280;32029;51.358;5.628;2023-04-23T05:45:39;100443.94;;;13.20;91.86
46303;BME280;32029;51.358;5.628;2023-04-23T05:48:05;100444.19;;;13.26;91.77
46303;BME280;32029;51.358;5.628;2023-04-23T05:50:32;100416.41;;;13.14;91.43
46303;BME280;32029;51.358;5.628;2023-04-23T05:52:59;100435.06;;;13.32;91.02
46303;BME280;32029;51.358;5.628;2023-04-23T05:55:25;100420.84;;;13.21;90.68
46303;BME280;32029;51.358;5.628;2023-04-23T05:57:52;100410.69;;;13.15;90.46
46303;BME280;32029;51.358;5.628;2023-04-23T06:00:19;100400.09;;;13.12;90.26
46303;BME280;32029;51.358;5.628;2023-04-23T06:02:46;100434.41;;;13.36;90.63
46303;BME280;32029;51.358;5.628;2023-04-23T06:05:13;100434.19;;;13.38;90.50
46303;BME280;32029;51.358;5.628;2023-04-23T06:07:41;100386.31;;;13.12;90.49
46303;BME280;32029;51.358;5.628;2023-04-23T06:10:08;100436.31;;;13.42;90.48
46303;BME280;32029;51.358;5.628;2023-04-23T06:12:35;100417.66;;;13.38;90.47
46303;BME280;32029;51.358;5.628;2023-04-23T06:15:05;100432.06;;;13.46;90.40
46303;BME280;32029;51.358;5.628;2023-04-23T06:17:32;100419.56;;;13.44;90.56
46303;BME280;32029;51.358;5.628;2023-04-23T06:19:59;100395.00;;;13.36;90.93
46303;BME280;32029;51.358;5.628;2023-04-23T06:22:26;100395.19;;;13.41;91.12
46303;BME280;32029;51.358;5.628;2023-04-23T06:24:52;100407.88;;;13.55;90.76
46303;BME280;32029;51.358;5.628;2023-04-23T06:27:19;100412.06;;;13.64;90.46
46303;BME280;32029;51.358;5.628;2023-04-23T06:29:46;100401.28;;;13.63;90.51
46303;BME280;32029;51.358;5.628;2023-04-23T06:32:12;100407.38;;;13.71;89.88
46303;BME280;32029;51.358;5.628;2023-04-23T06:34:39;100403.97;;;13.76;89.76
46303;BME280;32029;51.358;5.628;2023-04-23T06:37:06;100401.88;;;13.71;89.10
46303;BME280;32029;51.358;5.628;2023-04-23T06:39:33;100393.00;;;13.69;89.60
46303;BME280;32029;51.358;5.628;2023-04-23T06:42:00;100397.59;;;13.82;89.03
46303;BME280;32029;51.358;5.628;2023-04-23T06:44:28;100408.13;;;13.92;88.90
46303;BME280;32029;51.358;5.628;2023-04-23T06:46:54;100402.84;;;13.97;88.79
46303;BME280;32029;51.358;5.628;2023-04-23T06:49:21;100403.00;;;14.02;88.71
46303;BME280;32029;51.358;5.628;2023-04-23T06:51:48;100378.84;;;13.97;88.31
46303;BME280;32029;51.358;5.628;2023-04-23T06:54:15;100391.53;;;14.05;87.95
46303;BME280;32029;51.358;5.628;2023-04-23T06:56:41;100374.59;;;13.95;87.79
46303;BME280;32029;51.358;5.628;2023-04-23T06:59:08;100399.56;;;14.13;87.94
46303;BME280;32029;51.358;5.628;2023-04-23T07:01:35;100390.00;;;14.16;87.50
46303;BME280;32029;51.358;5.628;2023-04-23T07:04:01;100399.47;;;14.27;87.01
46303;BME280;32029;51.358;5.628;2023-04-23T07:06:28;100366.44;;;14.13;86.93
46303;BME280;32029;51.358;5.628;2023-04-23T07:08:55;100387.94;;;14.36;86.67
46303;BME280;32029;51.358;5.628;2023-04-23T07:11:21;100376.50;;;14.33;85.99
46303;BME280;32029;51.358;5.628;2023-04-23T07:13:49;100383.25;;;14.43;86.32
46303;BME280;32029;51.358;5.628;2023-04-23T07:16:15;100362.00;;;14.44;85.34
46303;BME280;32029;51.358;5.628;2023-04-23T07:18:42;100372.41;;;14.42;85.25
46303;BME280;32029;51.358;5.628;2023-04-23T07:21:09;100379.56;;;14.56;85.10
46303;BME280;32029;51.358;5.628;2023-04-23T07:23:35;100339.13;;;14.37;84.50
46303;BME280;32029;51.358;5.628;2023-04-23T07:26:02;100378.88;;;14.61;83.70
46303;BME280;32029;51.358;5.628;2023-04-23T07:28:29;100377.13;;;14.66;83.85
46303;BME280;32029;51.358;5.628;2023-04-23T07:30:56;100366.75;;;14.62;83.93
46303;BME280;32029;51.358;5.628;2023-04-23T07:33:23;100367.59;;;14.62;84.13
46303;BME280;32029;51.358;5.628;2023-04-23T07:35:50;100364.34;;;14.72;83.38
46303;BME280;32029;51.358;5.628;2023-04-23T07:38:17;100375.34;;;14.79;82.24
46303;BME280;32029;51.358;5.628;2023-04-23T07:40:44;100353.28;;;14.72;83.68
46303;BME280;32029;51.358;5.628;2023-04-23T07:43:11;100347.25;;;14.82;82.72
46303;BME280;32029;51.358;5.628;2023-04-23T07:45:39;100358.78;;;14.97;81.69
46303;BME280;32029;51.358;5.628;2023-04-23T07:48:06;100352.66;;;14.95;80.90
46303;BME280;32029;51.358;5.628;2023-04-23T07:50:32;100348.97;;;15.01;81.25
46303;BME280;32029;51.358;5.628;2023-04-23T07:52:59;100353.75;;;15.12;81.21
46303;BME280;32029;51.358;5.628;2023-04-23T07:55:26;100358.69;;;15.10;81.59
46303;BME280;32029;51.358;5.628;2023-04-23T07:57:53;100339.34;;;15.10;80.45
46303;BME280;32029;51.358;5.628;2023-04-23T08:00:19;100345.41;;;15.19;80.27
46303;BME280;32029;51.358;5.628;2023-04-23T08:02:46;100368.38;;;15.38;80.30
46303;BME280;32029;51.358;5.628;2023-04-23T08:05:13;100342.84;;;15.36;80.36
46303;BME280;32029;51.358;5.628;2023-04-23T08:07:39;100366.84;;;15.60;80.72
46303;BME280;32029;51.358;5.628;2023-04-23T08:10:06;100341.66;;;15.68;79.48
46303;BME280;32029;51.358;5.628;2023-04-23T08:12:33;100300.28;;;15.55;78.91
46303;BME280;32029;51.358;5.628;2023-04-23T08:15:01;100340.75;;;15.86;78.44
46303;BME280;32029;51.358;5.628;2023-04-23T08:17:29;100319.34;;;15.82;77.14
46303;BME280;32029;51.358;5.628;2023-04-23T08:19:55;100342.16;;;15.96;78.08
46303;BME280;32029;51.358;5.628;2023-04-23T08:22:22;100348.66;;;16.01;78.21
46303;BME280;32029;51.358;5.628;2023-04-23T08:24:49;100318.09;;;15.96;77.30
46303;BME280;32029;51.358;5.628;2023-04-23T08:27:15;100325.81;;;16.06;77.67
46303;BME280;32029;51.358;5.628;2023-04-23T08:29:42;100311.88;;;16.12;77.97
46303;BME280;32029;51.358;5.628;2023-04-23T08:32:09;100332.41;;;16.35;77.15
46303;BME280;32029;51.358;5.628;2023-04-23T08:34:36;100326.38;;;16.38;77.36
46303;BME280;32029;51.358;5.628;2023-04-23T08:37:02;100326.28;;;16.45;77.83
46303;BME280;32029;51.358;5.628;2023-04-23T08:39:33;100340.75;;;16.58;76.12
46303;BME280;32029;51.358;5.628;2023-04-23T08:42:05;100335.91;;;16.65;75.68
46303;BME280;32029;51.358;5.628;2023-04-23T08:44:37;100331.13;;;16.73;73.08
46303;BME280;32029;51.358;5.628;2023-04-23T08:47:09;100329.00;;;16.75;73.96
46303;BME280;32029;51.358;5.628;2023-04-23T08:49:40;100295.47;;;16.64;74.52
46303;BME280;32029;51.358;5.628;2023-04-23T08:52:22;100328.03;;;16.93;72.95
46303;BME280;32029;51.358;5.628;2023-04-23T08:54:51;100338.63;;;17.07;71.43
46303;BME280;32029;51.358;5.628;2023-04-23T08:57:19;100319.38;;;17.01;70.06
46303;BME280;32029;51.358;5.628;2023-04-23T08:59:47;100295.84;;;17.03;71.12
46303;BME280;32029;51.358;5.628;2023-04-23T09:02:15;100343.19;;;17.37;70.36
46303;BME280;32029;51.358;5.628;2023-04-23T09:04:44;100323.50;;;17.38;68.85
46303;BME280;32029;51.358;5.628;2023-04-23T09:07:11;100306.88;;;17.38;68.02
46303;BME280;32029;51.358;5.628;2023-04-23T09:09:38;100336.50;;;17.61;67.46
46303;BME280;32029;51.358;5.628;2023-04-23T09:12:07;100335.25;;;17.69;67.40
46303;BME280;32029;51.358;5.628;2023-04-23T09:14:35;100325.25;;;17.80;67.05
46303;BME280;32029;51.358;5.628;2023-04-23T09:17:02;100305.56;;;17.81;66.41
46303;BME280;32029;51.358;5.628;2023-04-23T09:19:29;100288.78;;;17.88;64.79
46303;BME280;32029;51.358;5.628;2023-04-23T09:21:57;100300.09;;;17.98;65.60
46303;BME280;32029;51.358;5.628;2023-04-23T09:24:24;100321.56;;;18.20;64.40
46303;BME280;32029;51.358;5.628;2023-04-23T09:26:51;100322.34;;;18.32;64.90
46303;BME280;32029;51.358;5.628;2023-04-23T09:29:20;100316.78;;;18.49;64.03
46303;BME280;32029;51.358;5.628;2023-04-23T09:31:54;100299.63;;;18.52;63.24
46303;BME280;32029;51.358;5.628;2023-04-23T09:34:24;100274.22;;;18.43;62.09
46303;BME280;32029;51.358;5.628;2023-04-23T09:36:52;100309.75;;;18.75;63.59
46303;BME280;32029;51.358;5.628;2023-04-23T09:39:26;100297.13;;;18.84;64.05
46303;BME280;32029;51.358;5.628;2023-04-23T09:41:52;100309.72;;;19.08;63.05
46303;BME280;32029;51.358;5.628;2023-04-23T09:44:21;100293.59;;;19.10;60.62
46303;BME280;32029;51.358;5.628;2023-04-23T09:46:48;100301.38;;;19.30;59.84
46303;BME280;32029;51.358;5.628;2023-04-23T09:49:15;100301.19;;;19.37;59.00
46303;BME280;32029;51.358;5.628;2023-04-23T09:51:46;100296.16;;;19.34;60.24
46303;BME280;32029;51.358;5.628;2023-04-23T09:54:19;100275.00;;;19.33;59.92
46303;BME280;32029;51.358;5.628;2023-04-23T09:56:52;100283.50;;;19.43;59.90
46303;BME280;32029;51.358;5.628;2023-04-23T09:59:28;100283.59;;;19.53;60.18
46303;BME280;32029;51.358;5.628;2023-04-23T10:01:55;100295.03;;;19.74;59.71
46303;BME280;32029;51.358;5.628;2023-04-23T10:04:23;100287.38;;;19.86;59.35
46303;BME280;32029;51.358;5.628;2023-04-23T10:06:55;100273.69;;;19.85;58.77
46303;BME280;32029;51.358;5.628;2023-04-23T10:09:23;100295.88;;;20.01;58.48
46303;BME280;32029;51.358;5.628;2023-04-23T10:11:57;100297.88;;;20.06;58.71
46303;BME280;32029;51.358;5.628;2023-04-23T10:14:25;100278.09;;;20.07;58.01
46303;BME280;32029;51.358;5.628;2023-04-23T10:17:00;100283.19;;;20.16;58.49
46303;BME280;32029;51.358;5.628;2023-04-23T10:19:28;100293.25;;;20.17;58.43
46303;BME280;32029;51.358;5.628;2023-04-23T10:21:59;100265.81;;;20.03;58.42
46303;BME280;32029;51.358;5.628;2023-04-23T10:24:36;100255.31;;;20.11;59.55
46303;BME280;32029;51.358;5.628;2023-04-23T10:27:09;100282.63;;;20.46;58.41
46303;BME280;32029;51.358;5.628;2023-04-23T10:29:37;100269.53;;;20.46;58.51
46303;BME280;32029;51.358;5.628;2023-04-23T10:32:05;100272.47;;;20.62;58.24
46303;BME280;32029;51.358;5.628;2023-04-23T10:34:32;100289.34;;;20.82;58.17
46303;BME280;32029;51.358;5.628;2023-04-23T10:37:00;100263.75;;;20.90;56.51
46303;BME280;32029;51.358;5.628;2023-04-23T10:39:31;100278.28;;;20.92;55.23
46303;BME280;32029;51.358;5.628;2023-04-23T10:41:59;100252.50;;;20.75;55.88
46303;BME280;32029;51.358;5.628;2023-04-23T10:44:36;100277.44;;;20.92;56.21
46303;BME280;32029;51.358;5.628;2023-04-23T10:47:04;100263.81;;;21.00;55.83
46303;BME280;32029;51.358;5.628;2023-04-23T10:49:33;100255.78;;;21.09;56.11
46303;BME280;32029;51.358;5.628;2023-04-23T10:52:12;100260.59;;;21.24;54.88
46303;BME280;32029;51.358;5.628;2023-04-23T10:54:42;100222.59;;;21.08;54.05
46303;BME280;32029;51.358;5.628;2023-04-23T10:57:10;100251.41;;;21.23;53.70
46303;BME280;32029;51.358;5.628;2023-04-23T10:59:50;100210.25;;;20.98;53.22
46303;BME280;32029;51.358;5.628;2023-04-23T11:02:17;100230.38;;;21.05;53.96
46303;BME280;32029;51.358;5.628;2023-04-23T11:04:45;100233.22;;;21.16;54.61
46303;BME280;32029;51.358;5.628;2023-04-23T11:07:13;100215.38;;;21.22;54.24
46303;BME280;32029;51.358;5.628;2023-04-23T11:12:30;100217.44;;;21.37;53.82
46303;BME280;32029;51.358;5.628;2023-04-23T11:14:58;100226.16;;;21.50;53.83
46303;BME280;32029;51.358;5.628;2023-04-23T11:22:41;100223.44;;;21.91;52.16
46303;BME280;32029;51.358;5.628;2023-04-23T11:25:13;100207.22;;;21.88;51.68
46303;BME280;32029;51.358;5.628;2023-04-23T11:27:43;100204.72;;;21.92;52.37
46303;BME280;32029;51.358;5.628;2023-04-23T11:30:11;100194.16;;;22.14;51.56
46303;BME280;32029;51.358;5.628;2023-04-23T11:32:40;100185.50;;;22.21;50.99
46303;BME280;32029;51.358;5.628;2023-04-23T11:35:07;100188.84;;;22.38;50.07
46303;BME280;32029;51.358;5.628;2023-04-23T11:37:39;100155.34;;;22.28;50.46
46303;BME280;32029;51.358;5.628;2023-04-23T11:40:09;100177.66;;;22.48;50.67
46303;BME280;32029;51.358;5.628;2023-04-23T11:42:40;100170.13;;;22.44;50.05
46303;BME280;32029;51.358;5.628;2023-04-23T11:45:20;100148.63;;;22.39;50.12
46303;BME280;32029;51.358;5.628;2023-04-23T11:47:48;100162.00;;;22.53;49.18
46303;BME280;32029;51.358;5.628;2023-04-23T11:50:17;100166.16;;;22.65;49.22
46303;BME280;32029;51.358;5.628;2023-04-23T11:52:44;100142.97;;;22.60;48.11
46303;BME280;32029;51.358;5.628;2023-04-23T11:55:11;100124.53;;;22.54;49.20
46303;BME280;32029;51.358;5.628;2023-04-23T11:57:44;100161.34;;;22.91;49.95
46303;BME280;32029;51.358;5.628;2023-04-23T12:00:12;100136.19;;;22.91;48.49
46303;BME280;32029;51.358;5.628;2023-04-23T12:02:50;100148.97;;;23.08;48.45
46303;BME280;32029;51.358;5.628;2023-04-23T12:05:22;100153.97;;;23.16;49.54
46303;BME280;32029;51.358;5.628;2023-04-23T12:07:54;100141.66;;;23.22;48.78
46303;BME280;32029;51.358;5.628;2023-04-23T12:10:31;100137.66;;;23.33;47.98
46303;BME280;32029;51.358;5.628;2023-04-23T12:12:59;100141.56;;;23.32;47.88
46303;BME280;32029;51.358;5.628;2023-04-23T12:15:26;100128.19;;;23.29;47.89
46303;BME280;32029;51.358;5.628;2023-04-23T12:18:07;100106.97;;;23.18;47.13
46303;BME280;32029;51.358;5.628;2023-04-23T12:20:34;100079.06;;;23.03;47.84
46303;BME280;32029;51.358;5.628;2023-04-23T12:23:04;100099.16;;;23.15;48.30
46303;BME280;32029;51.358;5.628;2023-04-23T12:25:33;100120.63;;;23.24;48.38
46303;BME280;32029;51.358;5.628;2023-04-23T12:28:01;100090.75;;;23.15;48.26
46303;BME280;32029;51.358;5.628;2023-04-23T12:30:32;100106.00;;;23.38;47.19
46303;BME280;32029;51.358;5.628;2023-04-23T12:33:02;100082.00;;;23.27;45.61
46303;BME280;32029;51.358;5.628;2023-04-23T12:35:43;100071.69;;;23.22;45.24
46303;BME280;32029;51.358;5.628;2023-04-23T12:38:39;100095.66;;;23.38;45.83
46303;BME280;32029;51.358;5.628;2023-04-23T12:41:07;100086.09;;;23.39;46.30
46303;BME280;32029;51.358;5.628;2023-04-23T12:43:34;100101.72;;;23.51;45.73
46303;BME280;32029;51.358;5.628;2023-04-23T12:46:01;100067.66;;;23.38;45.25
46303;BME280;32029;51.358;5.628;2023-04-23T12:48:27;100067.34;;;23.45;45.97
46303;BME280;32029;51.358;5.628;2023-04-23T12:50:54;100081.47;;;23.64;45.83
46303;BME280;32029;51.358;5.628;2023-04-23T12:53:21;100081.72;;;23.73;45.78
46303;BME280;32029;51.358;5.628;2023-04-23T12:55:49;100083.31;;;23.79;45.36
46303;BME280;32029;51.358;5.628;2023-04-23T12:58:15;100076.63;;;23.75;45.06
46303;BME280;32029;51.358;5.628;2023-04-23T13:00:42;100074.72;;;23.70;44.02
46303;BME280;32029;51.358;5.628;2023-04-23T13:03:09;100048.19;;;23.57;44.85